Time;durP1;ratioP1;P1;durP2;ratioP2;P2;SDS_P1;SDS_P2;PMS_P1;PMS_P2;Temp;Humidity;BMP_temperature;BMP_pressure;BME280_temperature;BME280_humidity;BME280_pressure;Samples;Min_cycle;Max_cycle;Signal;HPM_P1;HPM_P2
2023/01/05 00:02:23;;;;;;;;;;;11.10;99.90;;;;;;5076200;28;19996;-66
2023/01/05 00:04:48;;;;;;;;;;;11.10;99.90;;;;;;5075900;28;19920;-65
2023/01/05 00:07:13;;;;;;;;;;;11.10;99.90;;;;;;5076058;28;19962;-65
2023/01/05 00:09:39;;;;;;;;;;;11.10;99.90;;;;;;5075961;28;19908;-66
2023/01/05 00:23:07;;;;;;;;;;;11.10;99.90;;;;;;5075628;28;19909;-65
2023/01/05 00:25:36;;;;;;;;;;;11.20;99.90;;;;;;5057821;28;20372;-66
2023/01/05 00:28:01;;;;;;;;;;;11.20;99.90;;;;;;5075663;28;19908;-64
2023/01/05 00:30:29;;;;;;;;;;;11.20;99.90;;;;;;5075595;28;20007;-65
2023/01/05 00:32:54;;;;;;;;;;;11.30;99.90;;;;;;5075725;28;19931;-66
2023/01/05 00:35:20;;;;;;;;;;;11.20;99.90;;;;;;5075736;28;20007;-65
2023/01/05 00:37:46;;;;;;;;;;;11.20;99.90;;;;;;5075708;28;19909;-65
2023/01/05 00:40:14;;;;;;;;;;;11.20;99.90;;;;;;5075680;28;19908;-66
2023/01/05 00:42:40;;;;;;;;;;;11.30;99.90;;;;;;5075652;28;20281;-65
2023/01/05 00:45:06;;;;;;;;;;;11.30;99.90;;;;;;5075549;28;19999;-65
2023/01/05 00:47:32;;;;;;;;;;;11.30;99.90;;;;;;5057417;28;20007;-66
2023/01/05 00:49:57;;;;;;;;;;;11.20;99.90;;;;;;5075179;28;19948;-66
2023/01/05 00:52:22;;;;;;;;;;;11.20;99.90;;;;;;5075085;28;19920;-66
2023/01/05 00:54:48;;;;;;;;;;;11.20;99.90;;;;;;5075411;28;20011;-66
2023/01/05 00:57:14;;;;;;;;;;;11.20;99.90;;;;;;5075291;28;19908;-67
2023/01/05 00:59:39;;;;;;;;;;;11.20;99.90;;;;;;5075013;28;19954;-66
2023/01/05 01:02:05;;;;;;;;;;;11.10;99.90;;;;;;5075224;28;19916;-67
2023/01/05 01:04:31;;;;;;;;;;;11.10;99.90;;;;;;5074896;28;19908;-66
2023/01/05 01:06:57;;;;;;;;;;;11.10;99.90;;;;;;5074925;28;19967;-66
2023/01/05 01:09:22;;;;;;;;;;;11.10;99.90;;;;;;5074710;28;20286;-67
2023/01/05 01:11:48;;;;;;;;;;;11.10;99.90;;;;;;5074948;28;19962;-66
2023/01/05 01:14:14;;;;;;;;;;;11.10;99.90;;;;;;5074992;28;20416;-66
2023/01/05 01:16:40;;;;;;;;;;;11.20;99.90;;;;;;5074082;28;19916;-66
2023/01/05 01:19:06;;;;;;;;;;;11.10;99.90;;;;;;5074633;28;19912;-66
2023/01/05 01:21:32;;;;;;;;;;;11.10;99.90;;;;;;5074455;28;19908;-67
2023/01/05 01:23:57;;;;;;;;;;;11.00;99.90;;;;;;5074395;28;19909;-66
2023/01/05 01:26:23;;;;;;;;;;;11.00;99.90;;;;;;5074081;28;19961;-66
2023/01/05 01:28:48;;;;;;;;;;;11.00;99.90;;;;;;5074043;28;20402;-66
2023/01/05 01:31:14;;;;;;;;;;;11.00;99.90;;;;;;5073791;28;19920;-66
2023/01/05 01:33:39;;;;;;;;;;;11.00;99.90;;;;;;5074409;28;19936;-69
2023/01/05 01:36:06;;;;;;;;;;;10.90;99.90;;;;;;5074317;28;19915;-69
2023/01/05 01:38:31;;;;;;;;;;;11.00;99.90;;;;;;5073895;28;20003;-69
2023/01/05 01:40:57;;;;;;;;;;;11.00;99.90;;;;;;5073918;28;19952;-70
2023/01/05 01:43:39;;;;;;;;;;;10.90;99.90;;;;;;5055988;28;19908;-68
2023/01/05 01:46:06;;;;;;;;;;;10.90;99.90;;;;;;5073846;28;19909;-69
2023/01/05 01:48:31;;;;;;;;;;;10.80;99.90;;;;;;5073973;28;19995;-69
2023/01/05 01:50:57;;;;;;;;;;;10.80;99.90;;;;;;5074253;28;19944;-69
2023/01/05 01:53:25;;;;;;;;;;;10.70;99.90;;;;;;5074061;28;19920;-69
2023/01/05 01:55:51;;;;;;;;;;;10.60;99.90;;;;;;5074270;28;19908;-68
2023/01/05 01:58:18;;;;;;;;;;;10.60;99.90;;;;;;5073989;28;19954;-68
2023/01/05 02:00:44;;;;;;;;;;;10.60;99.90;;;;;;5074218;28;20003;-69
2023/01/05 02:03:09;;;;;;;;;;;10.50;99.90;;;;;;5074155;28;19909;-68
2023/01/05 02:05:36;;;;;;;;;;;10.50;99.90;;;;;;5073963;28;20393;-68
2023/01/05 02:08:03;;;;;;;;;;;10.50;99.90;;;;;;5074140;28;19908;-67
2023/01/05 02:10:42;;;;;;;;;;;10.60;99.90;;;;;;5074045;28;20389;-67
2023/01/05 02:13:17;;;;;;;;;;;10.50;99.90;;;;;;5073967;28;19916;-67
2023/01/05 02:15:47;;;;;;;;;;;10.50;99.90;;;;;;5073698;28;19915;-67
2023/01/05 02:18:26;;;;;;;;;;;10.50;99.90;;;;;;5073693;28;19908;-67
2023/01/05 02:20:57;;;;;;;;;;;10.50;99.90;;;;;;5073941;28;19958;-67
2023/01/05 02:23:30;;;;;;;;;;;10.50;99.90;;;;;;5073665;28;20366;-68
2023/01/05 02:26:11;;;;;;;;;;;10.50;99.90;;;;;;5073586;28;19916;-67
2023/01/05 02:28:57;;;;;;;;;;;10.50;99.90;;;;;;5073636;28;20346;-67
2023/01/05 02:31:42;;;;;;;;;;;10.50;99.90;;;;;;5073165;28;19920;-67
2023/01/05 02:34:18;;;;;;;;;;;10.50;99.90;;;;;;5073382;28;19931;-67
2023/01/05 02:39:25;;;;;;;;;;;10.40;99.90;;;;;;5091378;28;19919;-67
2023/01/05 02:42:00;;;;;;;;;;;10.40;99.90;;;;;;5091147;28;19920;-67
2023/01/05 02:44:28;;;;;;;;;;;10.40;99.90;;;;;;5091354;28;20366;-67
2023/01/05 02:47:13;;;;;;;;;;;10.40;99.90;;;;;;5091388;28;19908;-68
2023/01/05 02:49:39;;;;;;;;;;;10.50;99.90;;;;;;5091219;28;19909;-67
2023/01/05 02:52:06;;;;;;;;;;;10.50;99.90;;;;;;5091165;28;19931;-67
2023/01/05 02:54:39;;;;;;;;;;;10.50;99.90;;;;;;5090933;28;20388;-67
2023/01/05 02:57:08;;;;;;;;;;;10.50;99.90;;;;;;5090825;28;19995;-67
2023/01/05 02:59:37;;;;;;;;;;;10.50;99.90;;;;;;5091122;28;20431;-67
2023/01/05 03:02:05;;;;;;;;;;;10.60;99.90;;;;;;5090828;28;19915;-67
2023/01/05 03:04:34;;;;;;;;;;;10.60;99.90;;;;;;5091020;28;19908;-67
2023/01/05 03:07:01;;;;;;;;;;;10.60;99.90;;;;;;5090973;28;20277;-67
2023/01/05 03:09:35;;;;;;;;;;;10.60;99.90;;;;;;5090935;28;20422;-67
2023/01/05 03:15:13;;;;;;;;;;;10.60;99.90;;;;;;5090411;28;19915;-66
2023/01/05 03:17:43;;;;;;;;;;;10.70;99.90;;;;;;5090405;28;19912;-67
2023/01/05 03:20:11;;;;;;;;;;;10.60;99.90;;;;;;5090697;28;20049;-67
2023/01/05 03:36:41;;;;;;;;;;;10.60;99.90;;;;;;5089988;28;19917;-67
2023/01/05 03:39:07;;;;;;;;;;;10.60;99.90;;;;;;5108432;28;20437;-67
2023/01/05 03:41:33;;;;;;;;;;;10.70;99.90;;;;;;5110451;28;19951;-67
2023/01/05 03:43:59;;;;;;;;;;;10.70;99.90;;;;;;5110488;28;19930;-67
2023/01/05 03:46:24;;;;;;;;;;;10.70;99.90;;;;;;5110595;28;19934;-67
2023/01/05 03:48:50;;;;;;;;;;;10.60;99.90;;;;;;5107695;28;19957;-67
2023/01/05 03:51:15;;;;;;;;;;;10.60;99.90;;;;;;5096901;28;19911;-68
2023/01/05 03:53:41;;;;;;;;;;;10.60;99.90;;;;;;5096851;28;19908;-67
2023/01/05 03:56:06;;;;;;;;;;;10.60;99.90;;;;;;5096530;28;20361;-67
2023/01/05 03:58:32;;;;;;;;;;;10.60;99.90;;;;;;5096392;28;19912;-67
2023/01/05 04:00:57;;;;;;;;;;;10.50;99.90;;;;;;5096466;28;20007;-67
2023/01/05 04:03:23;;;;;;;;;;;10.50;99.90;;;;;;5096412;28;20033;-67
2023/01/05 04:05:48;;;;;;;;;;;10.50;99.90;;;;;;5096596;28;19908;-66
2023/01/05 04:08:14;;;;;;;;;;;10.40;99.90;;;;;;5096588;28;19912;-67
2023/01/05 04:10:39;;;;;;;;;;;10.30;99.90;;;;;;5096560;28;20369;-67
2023/01/05 04:13:05;;;;;;;;;;;10.20;99.90;;;;;;5096453;28;19908;-67
2023/01/05 04:15:30;;;;;;;;;;;10.10;99.90;;;;;;5096506;28;19915;-67
2023/01/05 04:17:55;;;;;;;;;;;10.00;99.90;;;;;;5096034;28;19912;-67
2023/01/05 04:20:21;;;;;;;;;;;9.90;99.90;;;;;;5096341;28;19958;-67
2023/01/05 04:22:46;;;;;;;;;;;9.80;99.90;;;;;;5095966;28;20374;-67
2023/01/05 04:25:12;;;;;;;;;;;9.80;99.90;;;;;;5096224;28;19935;-66
2023/01/05 04:27:37;;;;;;;;;;;9.80;99.90;;;;;;5096212;28;19908;-66
2023/01/05 04:30:03;;;;;;;;;;;9.70;99.90;;;;;;5095883;28;19999;-67
2023/01/05 04:32:29;;;;;;;;;;;9.70;99.90;;;;;;5095835;28;19915;-67
2023/01/05 04:34:54;;;;;;;;;;;9.70;99.90;;;;;;5095810;28;19965;-67
2023/01/05 04:37:19;;;;;;;;;;;9.70;99.90;;;;;;5095717;28;19959;-67
2023/01/05 04:39:45;;;;;;;;;;;9.70;99.90;;;;;;5095995;28;19908;-67
2023/01/05 04:42:10;;;;;;;;;;;9.70;99.90;;;;;;5095702;28;20002;-67
2023/01/05 04:44:36;;;;;;;;;;;9.70;99.90;;;;;;5095872;28;20353;-67
2023/01/05 04:47:01;;;;;;;;;;;9.80;99.90;;;;;;5095859;28;19908;-67
2023/01/05 04:49:27;;;;;;;;;;;9.80;99.90;;;;;;5095798;28;19908;-66
2023/01/05 04:51:52;;;;;;;;;;;9.80;99.90;;;;;;5095752;28;19991;-66
2023/01/05 04:54:18;;;;;;;;;;;9.80;99.90;;;;;;5077311;28;20366;-67
2023/01/05 04:56:43;;;;;;;;;;;9.80;99.90;;;;;;5095630;28;19918;-66
2023/01/05 04:59:09;;;;;;;;;;;9.80;99.90;;;;;;5095196;28;19958;-66
2023/01/05 05:01:34;;;;;;;;;;;9.90;99.90;;;;;;5094233;28;19931;-67
2023/01/05 05:04:00;;;;;;;;;;;9.90;99.90;;;;;;5095532;28;19957;-66
2023/01/05 05:06:25;;;;;;;;;;;9.80;99.90;;;;;;5095441;28;19908;-67
2023/01/05 05:08:51;;;;;;;;;;;9.90;99.90;;;;;;5095429;28;19908;-67
2023/01/05 05:11:16;;;;;;;;;;;9.90;99.90;;;;;;5095352;28;19923;-67
2023/01/05 05:13:41;;;;;;;;;;;9.90;99.90;;;;;;5095340;28;19908;-66
2023/01/05 05:16:07;;;;;;;;;;;9.90;99.90;;;;;;5095006;28;19915;-66
2023/01/05 05:18:33;;;;;;;;;;;9.90;99.90;;;;;;5095163;28;19912;-67
2023/01/05 05:20:58;;;;;;;;;;;9.90;99.90;;;;;;5094928;28;19962;-67
2023/01/05 05:23:24;;;;;;;;;;;9.90;99.90;;;;;;5094856;28;19912;-66
2023/01/05 05:25:50;;;;;;;;;;;9.90;99.90;;;;;;5095080;28;19908;-67
2023/01/05 05:28:16;;;;;;;;;;;9.90;99.90;;;;;;5094758;28;19912;-66
2023/01/05 05:30:41;;;;;;;;;;;9.90;99.90;;;;;;5094741;28;19915;-67
2023/01/05 05:33:06;;;;;;;;;;;9.90;99.90;;;;;;5094704;28;20277;-66
2023/01/05 05:35:32;;;;;;;;;;;9.90;99.90;;;;;;5094648;28;19977;-66
2023/01/05 05:37:57;;;;;;;;;;;9.90;99.90;;;;;;5094371;28;19927;-67
2023/01/05 05:40:25;;;;;;;;;;;9.90;99.90;;;;;;5094841;28;19915;-66
2023/01/05 05:42:50;;;;;;;;;;;9.90;99.90;;;;;;5094819;28;19998;-67
2023/01/05 05:45:16;;;;;;;;;;;10.00;99.90;;;;;;5094471;28;20005;-67
2023/01/05 05:47:41;;;;;;;;;;;10.00;99.90;;;;;;5094441;28;19908;-67
2023/01/05 05:50:07;;;;;;;;;;;10.00;99.90;;;;;;5076295;28;19915;-66
2023/01/05 05:52:33;;;;;;;;;;;10.00;99.90;;;;;;5094415;28;19908;-67
2023/01/05 05:54:58;;;;;;;;;;;10.00;99.90;;;;;;5076163;28;20050;-66
2023/01/05 05:57:23;;;;;;;;;;;9.90;99.90;;;;;;5094160;28;19916;-66
2023/01/05 05:59:49;;;;;;;;;;;9.80;99.90;;;;;;5094229;28;19915;-67
2023/01/05 06:02:15;;;;;;;;;;;9.80;99.90;;;;;;5094416;28;19994;-68
2023/01/05 06:04:41;;;;;;;;;;;9.80;99.90;;;;;;5094422;28;20357;-67
2023/01/05 06:07:06;;;;;;;;;;;9.80;99.90;;;;;;5094357;28;19908;-66
2023/01/05 06:09:32;;;;;;;;;;;9.70;99.90;;;;;;5094088;28;19940;-66
2023/01/05 06:11:57;;;;;;;;;;;9.70;99.90;;;;;;5094054;28;19953;-66
2023/01/05 06:14:22;;;;;;;;;;;9.60;99.90;;;;;;5093986;28;19915;-66
2023/01/05 06:16:48;;;;;;;;;;;9.60;99.90;;;;;;5094206;28;19908;-67
2023/01/05 06:19:13;;;;;;;;;;;9.60;99.90;;;;;;5094139;28;20007;-66
2023/01/05 06:21:39;;;;;;;;;;;9.60;99.90;;;;;;5093892;28;19911;-67
2023/01/05 06:24:04;;;;;;;;;;;9.60;99.90;;;;;;5094124;28;19908;-67
2023/01/05 06:26:30;;;;;;;;;;;9.60;99.90;;;;;;5094153;28;19908;-67
2023/01/05 06:28:55;;;;;;;;;;;9.60;99.90;;;;;;5093809;28;19908;-67
2023/01/05 06:31:21;;;;;;;;;;;9.60;99.90;;;;;;5093790;28;19908;-66
2023/01/05 06:33:46;;;;;;;;;;;9.60;99.90;;;;;;5093993;28;19908;-67
2023/01/05 06:36:12;;;;;;;;;;;9.60;99.90;;;;;;5093671;28;20344;-67
2023/01/05 06:38:37;;;;;;;;;;;9.60;99.90;;;;;;5093492;28;19927;-67
2023/01/05 06:41:03;;;;;;;;;;;9.60;99.90;;;;;;5093942;28;19908;-67
2023/01/05 06:43:29;;;;;;;;;;;9.60;99.90;;;;;;5093722;28;19909;-67
2023/01/05 06:45:54;;;;;;;;;;;9.60;99.90;;;;;;5093667;28;19912;-67
2023/01/05 06:48:20;;;;;;;;;;;9.60;99.90;;;;;;5093902;28;19931;-67
2023/01/05 06:50:45;;;;;;;;;;;9.60;99.90;;;;;;5093870;28;19965;-67
2023/01/05 06:53:11;;;;;;;;;;;9.60;99.90;;;;;;5093827;28;19920;-67
2023/01/05 06:55:36;;;;;;;;;;;9.60;99.90;;;;;;5093425;28;20064;-67
2023/01/05 06:58:01;;;;;;;;;;;9.60;99.90;;;;;;5093719;28;19920;-67
2023/01/05 07:00:27;;;;;;;;;;;9.50;99.90;;;;;;5091922;28;20011;-67
2023/01/05 07:02:53;;;;;;;;;;;9.50;99.90;;;;;;5089510;28;20419;-67
2023/01/05 07:05:18;;;;;;;;;;;9.50;99.90;;;;;;5093376;28;20007;-67
2023/01/05 07:07:44;;;;;;;;;;;9.50;99.90;;;;;;5095892;28;20370;-68
2023/01/05 07:10:09;;;;;;;;;;;9.50;99.90;;;;;;5096629;28;19918;-67
2023/01/05 07:12:35;;;;;;;;;;;9.50;99.90;;;;;;5093181;28;20328;-67
2023/01/05 07:15:00;;;;;;;;;;;9.50;99.90;;;;;;5092984;28;19914;-67
2023/01/05 07:17:26;;;;;;;;;;;9.60;99.90;;;;;;5093290;28;19912;-67
2023/01/05 07:19:51;;;;;;;;;;;9.60;99.90;;;;;;5087042;28;19912;-67
2023/01/05 07:22:17;;;;;;;;;;;9.60;99.90;;;;;;5106450;28;20289;-67
2023/01/05 07:24:42;;;;;;;;;;;9.60;99.90;;;;;;5094426;28;19908;-68
2023/01/05 07:27:08;;;;;;;;;;;9.60;99.90;;;;;;5100239;28;19966;-67
2023/01/05 07:29:33;;;;;;;;;;;9.60;99.90;;;;;;5097228;28;19935;-67
2023/01/05 07:31:59;;;;;;;;;;;9.60;99.90;;;;;;5096662;28;19933;-67
2023/01/05 07:34:24;;;;;;;;;;;9.60;99.90;;;;;;5081298;28;19950;-68
2023/01/05 07:36:50;;;;;;;;;;;9.60;99.90;;;;;;5096093;28;20008;-68
2023/01/05 07:39:15;;;;;;;;;;;9.60;99.90;;;;;;5099424;28;19921;-67
2023/01/05 07:41:41;;;;;;;;;;;9.50;99.90;;;;;;5095511;28;19953;-67
2023/01/05 07:44:07;;;;;;;;;;;9.50;99.90;;;;;;5091690;28;19908;-67
2023/01/05 07:46:32;;;;;;;;;;;9.60;99.90;;;;;;5098779;28;20422;-69
2023/01/05 07:49:01;;;;;;;;;;;9.60;99.90;;;;;;5096579;28;19946;-67
2023/01/05 07:51:26;;;;;;;;;;;9.60;99.90;;;;;;5080700;28;20291;-67
2023/01/05 07:53:54;;;;;;;;;;;9.60;99.90;;;;;;5097890;28;19961;-67
2023/01/05 07:56:19;;;;;;;;;;;9.60;99.90;;;;;;5096741;28;20291;-67
2023/01/05 07:58:45;;;;;;;;;;;9.60;99.90;;;;;;5096259;28;19958;-67
2023/01/05 08:01:11;;;;;;;;;;;9.60;99.90;;;;;;5096414;28;20321;-68
2023/01/05 08:03:37;;;;;;;;;;;9.60;99.90;;;;;;5096458;28;19908;-68
2023/01/05 08:06:05;;;;;;;;;;;9.60;99.90;;;;;;5099336;28;20000;-68
2023/01/05 08:08:30;;;;;;;;;;;9.70;99.90;;;;;;5092165;28;20354;-68
2023/01/05 08:10:56;;;;;;;;;;;9.70;99.90;;;;;;5083579;28;19919;-67
2023/01/05 08:16:07;;;;;;;;;;;9.70;99.90;;;;;;5094638;28;20015;-67
2023/01/05 08:18:32;;;;;;;;;;;9.70;99.90;;;;;;5095266;28;20049;-67
2023/01/05 08:20:59;;;;;;;;;;;9.70;99.90;;;;;;5094128;28;19931;-67
2023/01/05 08:23:26;;;;;;;;;;;9.70;99.90;;;;;;5084684;28;19937;-67
2023/01/05 08:25:52;;;;;;;;;;;9.70;99.90;;;;;;5092214;28;19995;-68
2023/01/05 08:28:17;;;;;;;;;;;9.70;99.90;;;;;;5099671;28;20398;-68
2023/01/05 08:30:43;;;;;;;;;;;9.70;99.90;;;;;;5108105;28;20396;-68
2023/01/05 08:33:08;;;;;;;;;;;9.80;99.90;;;;;;5095694;28;19995;-68
2023/01/05 08:35:34;;;;;;;;;;;9.80;99.90;;;;;;5098804;28;19969;-68
2023/01/05 08:37:59;;;;;;;;;;;9.80;99.90;;;;;;5085112;28;19921;-68
2023/01/05 08:40:25;;;;;;;;;;;9.70;99.90;;;;;;5094489;28;19919;-68
2023/01/05 08:42:50;;;;;;;;;;;9.70;99.90;;;;;;5095333;28;19935;-67
2023/01/05 08:45:16;;;;;;;;;;;9.70;99.90;;;;;;5095042;28;19919;-68
2023/01/05 08:47:41;;;;;;;;;;;9.70;99.90;;;;;;5094716;28;20456;-68
2023/01/05 08:50:08;;;;;;;;;;;9.70;99.90;;;;;;5076410;28;19908;-67
2023/01/05 08:52:34;;;;;;;;;;;9.70;99.90;;;;;;5075251;28;19908;-68
2023/01/05 08:54:59;;;;;;;;;;;9.80;99.90;;;;;;5080814;28;19912;-67
2023/01/05 08:57:25;;;;;;;;;;;9.80;99.90;;;;;;5086098;28;19938;-67
2023/01/05 08:59:50;;;;;;;;;;;9.80;99.90;;;;;;5082936;28;19908;-67
2023/01/05 09:02:16;;;;;;;;;;;9.80;99.90;;;;;;5094808;28;19912;-68
2023/01/05 09:04:41;;;;;;;;;;;9.90;99.90;;;;;;5090175;28;19920;-68
2023/01/05 09:07:06;;;;;;;;;;;9.90;99.90;;;;;;5096603;28;19908;-68
2023/01/05 09:09:32;;;;;;;;;;;9.90;99.90;;;;;;5094924;28;20284;-68
2023/01/05 09:11:57;;;;;;;;;;;10.00;99.90;;;;;;5094977;28;19908;-68
2023/01/05 09:14:23;;;;;;;;;;;10.00;99.90;;;;;;5095718;28;19944;-68
2023/01/05 09:16:48;;;;;;;;;;;10.00;99.90;;;;;;5092095;28;19914;-68
2023/01/05 09:19:14;;;;;;;;;;;10.20;99.90;;;;;;5098066;28;19923;-68
2023/01/05 09:21:39;;;;;;;;;;;10.20;99.90;;;;;;5083549;28;19955;-68
2023/01/05 09:24:06;;;;;;;;;;;10.20;99.90;;;;;;5094654;28;19908;-68
2023/01/05 09:26:32;;;;;;;;;;;10.20;99.90;;;;;;5094993;28;19909;-68
2023/01/05 09:28:57;;;;;;;;;;;10.20;99.90;;;;;;5093501;28;19915;-67
2023/01/05 09:31:23;;;;;;;;;;;10.10;99.90;;;;;;5094155;28;19915;-67
2023/01/05 09:33:49;;;;;;;;;;;10.10;99.90;;;;;;5094250;28;19919;-68
2023/01/05 09:36:15;;;;;;;;;;;10.20;99.90;;;;;;5094790;28;19912;-68
2023/01/05 09:38:41;;;;;;;;;;;10.20;99.90;;;;;;5093740;28;19924;-67
2023/01/05 09:41:19;;;;;;;;;;;10.20;99.90;;;;;;5094268;28;19914;-68
2023/01/05 09:43:46;;;;;;;;;;;10.20;99.90;;;;;;5094115;28;19912;-68
2023/01/05 09:46:14;;;;;;;;;;;10.20;99.90;;;;;;5065690;28;19917;-68
2023/01/05 09:48:41;;;;;;;;;;;10.10;99.90;;;;;;5098814;28;19908;-68
2023/01/05 09:51:07;;;;;;;;;;;10.20;99.90;;;;;;5093257;28;19912;-68
2023/01/05 09:53:33;;;;;;;;;;;10.10;99.90;;;;;;5095087;28;19908;-67
2023/01/05 09:55:58;;;;;;;;;;;10.10;99.90;;;;;;5074722;28;20019;-67
2023/01/05 09:58:26;;;;;;;;;;;10.10;99.90;;;;;;5083722;28;19920;-68
2023/01/05 10:01:03;;;;;;;;;;;10.10;99.90;;;;;;5094054;28;19912;-68
2023/01/05 10:03:29;;;;;;;;;;;10.10;99.90;;;;;;5093860;28;19908;-67
2023/01/05 10:05:55;;;;;;;;;;;10.10;99.90;;;;;;5094350;28;20353;-68
2023/01/05 10:08:31;;;;;;;;;;;10.20;99.90;;;;;;5084429;28;19938;-68
2023/01/05 10:14:00;;;;;;;;;;;10.20;99.90;;;;;;5093928;28;19972;-68
2023/01/05 10:16:27;;;;;;;;;;;10.30;99.90;;;;;;5094095;28;20353;-68
2023/01/05 10:18:53;;;;;;;;;;;10.30;99.90;;;;;;5080777;28;19916;-68
2023/01/05 10:21:38;;;;;;;;;;;10.30;99.90;;;;;;5074139;28;20289;-68
2023/01/05 10:24:12;;;;;;;;;;;10.40;99.90;;;;;;5096693;28;19908;-68
2023/01/05 10:26:50;;;;;;;;;;;10.40;99.90;;;;;;5093803;28;19915;-68
2023/01/05 10:29:21;;;;;;;;;;;10.40;99.90;;;;;;5092896;28;19919;-68
2023/01/05 10:31:54;;;;;;;;;;;10.40;99.90;;;;;;5060898;28;20003;-69
2023/01/05 10:34:21;;;;;;;;;;;10.40;99.90;;;;;;5089561;28;19934;-68
2023/01/05 10:36:50;;;;;;;;;;;10.40;99.90;;;;;;5093793;28;20011;-67
2023/01/05 10:39:28;;;;;;;;;;;10.40;99.90;;;;;;5093409;28;19920;-68
2023/01/05 10:42:13;;;;;;;;;;;10.40;99.90;;;;;;5058433;28;19916;-68
2023/01/05 10:44:55;;;;;;;;;;;10.40;99.90;;;;;;5092593;28;19913;-69
2023/01/05 10:47:21;;;;;;;;;;;10.40;99.90;;;;;;5109188;28;19908;-68
2023/01/05 10:49:47;;;;;;;;;;;10.50;99.90;;;;;;5111409;28;19914;-70
2023/01/05 10:52:15;;;;;;;;;;;10.50;99.90;;;;;;5093320;28;20269;-68
2023/01/05 10:54:43;;;;;;;;;;;10.60;99.90;;;;;;5093742;28;19908;-69
2023/01/05 10:57:30;;;;;;;;;;;10.60;99.90;;;;;;5062938;28;20012;-68
2023/01/05 10:59:57;;;;;;;;;;;10.60;99.90;;;;;;5074748;28;19912;-68
2023/01/05 11:02:24;;;;;;;;;;;10.70;99.90;;;;;;5077026;28;19965;-68
2023/01/05 11:04:49;;;;;;;;;;;10.70;99.90;;;;;;5090582;28;19912;-68
2023/01/05 11:07:15;;;;;;;;;;;10.70;99.90;;;;;;5098461;28;20437;-69
2023/01/05 11:09:42;;;;;;;;;;;10.70;99.90;;;;;;5097699;28;19915;-68
2023/01/05 11:12:14;;;;;;;;;;;10.70;99.90;;;;;;5098439;28;20046;-68
2023/01/05 11:14:42;;;;;;;;;;;10.80;99.90;;;;;;5097621;28;20006;-69
2023/01/05 11:17:13;;;;;;;;;;;10.80;99.90;;;;;;5095296;28;19912;-68
2023/01/05 11:19:43;;;;;;;;;;;10.80;99.90;;;;;;5077127;28;19917;-68
2023/01/05 11:22:28;;;;;;;;;;;10.80;99.90;;;;;;5089966;28;20276;-69
2023/01/05 11:25:11;;;;;;;;;;;10.80;99.90;;;;;;5106710;28;19919;-69
2023/01/05 11:27:37;;;;;;;;;;;10.80;99.90;;;;;;5079078;28;20262;-68
2023/01/05 11:30:19;;;;;;;;;;;10.70;99.90;;;;;;5096284;28;19912;-67
2023/01/05 11:32:45;;;;;;;;;;;10.70;99.90;;;;;;5076895;28;19916;-66
2023/01/05 11:35:30;;;;;;;;;;;10.70;99.90;;;;;;5076490;28;19909;-67
2023/01/05 11:37:56;;;;;;;;;;;10.80;99.90;;;;;;5076240;28;19920;-67
2023/01/05 11:40:25;;;;;;;;;;;10.80;99.90;;;;;;5077187;28;19923;-68
2023/01/05 11:42:51;;;;;;;;;;;10.80;99.90;;;;;;5076262;28;19913;-67
2023/01/05 11:45:19;;;;;;;;;;;10.90;99.90;;;;;;5076381;28;20012;-68
2023/01/05 11:47:47;;;;;;;;;;;10.80;99.90;;;;;;5075992;28;19913;-68
2023/01/05 11:50:15;;;;;;;;;;;10.90;99.90;;;;;;5077090;28;19915;-68
2023/01/05 11:52:42;;;;;;;;;;;10.90;99.90;;;;;;5100158;28;19908;-68
2023/01/05 11:55:18;;;;;;;;;;;10.90;99.90;;;;;;5096278;28;19948;-68
2023/01/05 11:57:43;;;;;;;;;;;10.90;99.90;;;;;;5096010;28;20369;-68
2023/01/05 12:00:21;;;;;;;;;;;10.90;99.90;;;;;;5098231;28;19912;-68
2023/01/05 12:03:06;;;;;;;;;;;10.90;99.90;;;;;;5096255;28;20357;-68
2023/01/05 12:05:43;;;;;;;;;;;11.10;99.90;;;;;;5094097;28;19912;-68
2023/01/05 12:08:14;;;;;;;;;;;11.00;99.90;;;;;;5096147;28;19965;-67
2023/01/05 12:10:50;;;;;;;;;;;11.00;99.90;;;;;;5095581;28;19909;-68
2023/01/05 12:16:10;;;;;;;;;;;11.00;99.90;;;;;;5068155;28;20313;-68
2023/01/05 12:18:56;;;;;;;;;;;11.00;99.90;;;;;;5068834;28;19912;-67
2023/01/05 12:21:23;;;;;;;;;;;11.00;99.90;;;;;;5048374;28;19953;-67
2023/01/05 12:23:55;;;;;;;;;;;10.90;99.90;;;;;;5035238;28;19948;-67
2023/01/05 12:26:38;;;;;;;;;;;10.90;99.90;;;;;;5054768;28;20373;-68
2023/01/05 12:32:17;;;;;;;;;;;10.90;99.90;;;;;;5088757;27;20317;-67
2023/01/05 12:35:03;;;;;;;;;;;10.90;99.90;;;;;;5078731;28;20441;-67
2023/01/05 12:40:15;;;;;;;;;;;11.00;99.90;;;;;;5132119;27;20305;-67
2023/01/05 12:45:39;;;;;;;;;;;11.00;99.90;;;;;;5110223;27;20301;-68
2023/01/05 12:48:07;;;;;;;;;;;11.00;99.90;;;;;;5111321;28;20293;-68
2023/01/05 12:50:52;;;;;;;;;;;11.00;99.90;;;;;;5110144;28;19908;-68
2023/01/05 12:53:38;;;;;;;;;;;11.00;99.90;;;;;;5107761;28;19919;-68
2023/01/05 12:56:13;;;;;;;;;;;11.00;99.90;;;;;;5115160;28;19912;-68
2023/01/05 12:58:41;;;;;;;;;;;11.10;99.90;;;;;;5091200;28;20298;-68
2023/01/05 13:01:10;;;;;;;;;;;11.10;99.90;;;;;;5106187;28;19917;-68
2023/01/05 13:03:44;;;;;;;;;;;11.00;99.90;;;;;;5090263;28;19918;-68
2023/01/05 13:06:12;;;;;;;;;;;11.10;99.90;;;;;;5111743;28;19908;-68
2023/01/05 13:08:41;;;;;;;;;;;11.00;99.90;;;;;;5120798;28;20416;-68
2023/01/05 13:11:11;;;;;;;;;;;11.00;99.90;;;;;;5111422;28;19912;-68
2023/01/05 13:13:40;;;;;;;;;;;11.00;99.90;;;;;;5107676;28;19919;-68
2023/01/05 13:16:22;;;;;;;;;;;11.00;99.90;;;;;;5101606;28;19912;-68
2023/01/05 13:18:50;;;;;;;;;;;11.00;99.90;;;;;;5108481;28;20297;-68
2023/01/05 13:21:17;;;;;;;;;;;10.90;99.90;;;;;;5110680;28;20014;-68
2023/01/05 13:23:45;;;;;;;;;;;10.90;99.90;;;;;;5111000;28;20368;-68
2023/01/05 13:26:16;;;;;;;;;;;10.80;99.90;;;;;;5109768;28;19908;-68
2023/01/05 13:28:44;;;;;;;;;;;10.80;99.90;;;;;;5099237;28;19919;-69
2023/01/05 13:31:37;;;;;;;;;;;10.80;99.90;;;;;;5113182;28;19991;-68
2023/01/05 13:34:22;;;;;;;;;;;10.70;99.90;;;;;;5108453;28;19919;-68
2023/01/05 13:37:00;;;;;;;;;;;10.80;99.90;;;;;;5110387;28;19912;-68
2023/01/05 13:39:45;;;;;;;;;;;10.80;99.90;;;;;;5110431;28;20361;-68
2023/01/05 13:42:31;;;;;;;;;;;10.80;99.90;;;;;;5089297;28;20320;-68
2023/01/05 13:45:09;;;;;;;;;;;10.80;99.90;;;;;;5088894;28;20007;-68
2023/01/05 13:47:55;;;;;;;;;;;10.90;99.90;;;;;;5097849;28;19958;-68
2023/01/05 13:50:38;;;;;;;;;;;10.80;99.90;;;;;;5110087;28;19998;-68
2023/01/05 13:55:45;;;;;;;;;;;10.80;99.90;;;;;;5070920;28;19919;-67
2023/01/05 13:58:31;;;;;;;;;;;10.80;99.90;;;;;;5070796;28;19912;-67
2023/01/05 14:00:56;;;;;;;;;;;10.90;99.90;;;;;;5084129;28;19909;-68
2023/01/05 14:03:26;;;;;;;;;;;10.90;99.90;;;;;;5064483;28;19914;-67
2023/01/05 14:05:55;;;;;;;;;;;10.90;99.90;;;;;;5058104;28;19966;-67
2023/01/05 14:11:11;;;;;;;;;;;10.90;99.90;;;;;;5070980;28;20294;-68
2023/01/05 14:13:41;;;;;;;;;;;10.90;99.90;;;;;;5070853;28;19919;-68
2023/01/05 14:16:26;;;;;;;;;;;10.90;99.90;;;;;;5071038;28;19999;-67
2023/01/05 14:19:00;;;;;;;;;;;10.90;99.90;;;;;;5070551;28;19959;-67
2023/01/05 14:21:46;;;;;;;;;;;10.90;99.90;;;;;;5067433;28;19920;-67
2023/01/05 14:24:30;;;;;;;;;;;10.90;99.90;;;;;;5063834;28;20349;-67
2023/01/05 14:26:58;;;;;;;;;;;10.80;99.90;;;;;;5065868;28;19912;-68
2023/01/05 14:29:43;;;;;;;;;;;10.90;99.90;;;;;;5057867;28;19925;-68
2023/01/05 14:32:11;;;;;;;;;;;10.90;99.90;;;;;;5060319;28;19912;-68
2023/01/05 14:34:43;;;;;;;;;;;10.80;99.90;;;;;;5070237;28;19915;-68
2023/01/05 14:37:17;;;;;;;;;;;10.80;99.90;;;;;;5070387;28;19915;-68
2023/01/05 14:39:43;;;;;;;;;;;10.70;99.90;;;;;;5058129;28;19916;-68
2023/01/05 14:42:12;;;;;;;;;;;10.70;99.90;;;;;;5068089;28;19912;-69
2023/01/05 14:44:58;;;;;;;;;;;10.70;99.90;;;;;;5070142;28;19913;-68
2023/01/05 14:47:33;;;;;;;;;;;10.70;99.90;;;;;;5070051;28;20293;-68
2023/01/05 14:50:02;;;;;;;;;;;10.70;99.90;;;;;;5070022;28;19913;-68
2023/01/05 14:52:48;;;;;;;;;;;10.70;99.90;;;;;;5066782;28;20410;-68
2023/01/05 14:55:18;;;;;;;;;;;10.70;99.90;;;;;;5080412;28;19919;-68
2023/01/05 14:57:48;;;;;;;;;;;10.60;99.90;;;;;;5081914;28;20011;-68
2023/01/05 15:00:16;;;;;;;;;;;10.50;99.90;;;;;;5069932;28;19920;-68
2023/01/05 15:03:02;;;;;;;;;;;10.50;99.90;;;;;;5069315;28;20358;-68
2023/01/05 15:05:27;;;;;;;;;;;10.40;99.90;;;;;;5054122;28;19935;-68
2023/01/05 15:08:05;;;;;;;;;;;10.30;99.90;;;;;;5074585;28;19917;-68
2023/01/05 15:10:50;;;;;;;;;;;10.30;99.90;;;;;;5089036;28;20297;-68
2023/01/05 15:13:27;;;;;;;;;;;10.30;99.90;;;;;;5085057;28;20429;-68
2023/01/05 15:16:12;;;;;;;;;;;10.30;99.90;;;;;;5076349;28;20046;-68
2023/01/05 15:18:52;;;;;;;;;;;10.20;99.90;;;;;;5089264;28;20388;-68
2023/01/05 15:21:37;;;;;;;;;;;10.20;99.90;;;;;;5080895;28;19912;-68
2023/01/05 15:24:23;;;;;;;;;;;10.20;99.90;;;;;;5076039;28;19908;-68
2023/01/05 15:27:00;;;;;;;;;;;10.20;99.90;;;;;;5073712;28;20277;-68